Schriever, Louisiana
Current Conditions -  °F | °C
As of 9:47 AM on Friday 31 Oct 2014 (Local Time) from KHUM Reporting Station
Clear Clear  
Wind Chill: 66°   Ceiling: Unl
Heat Index: 66°   Visibility: 7mi
Dew Point: 48°   Wind: 6mph
Humidity: 52%   Direction: 300°WNW
Pressure: 30.09"   Gusts: NA
Location:  29.74°N, 90.81°W
Report Text: KHUM 311447Z 30005KT 7SM SKC 19/09 A3009 RMK ATIS QUEBEC VA/RY36-RY12/30 CLSD...MS
Loading
Personal Weather Stations






























Interactive Weather Map
Tropical Storm Tracking
New forecast layout! Learn more

10-Day Weather Forecast

Advertisements
Track Severe Weather on mobile